createdAt,value
2023-03-04T00:02:22.853Z,102.57
2023-03-04T00:04:49.893Z,108.43
2023-03-04T00:07:18.822Z,112.60
2023-03-04T00:09:46.939Z,114.63
2023-03-04T00:12:14.027Z,108.60
2023-03-04T00:14:41.380Z,115.28
2023-03-04T00:17:09.012Z,109.38
2023-03-04T00:19:35.893Z,102.70
2023-03-04T00:22:04.513Z,108.72
2023-03-04T00:24:32.201Z,106.72
2023-03-04T00:26:59.111Z,108.95
2023-03-04T00:29:26.080Z,101.93
2023-03-04T00:31:53.161Z,110.25
2023-03-04T00:34:20.712Z,108.68
2023-03-04T00:36:47.832Z,107.15
2023-03-04T00:39:15.923Z,98.55
2023-03-04T00:41:42.914Z,102.53
2023-03-04T00:44:09.821Z,93.25
2023-03-04T00:46:36.755Z,95.28
2023-03-04T00:49:04.161Z,105.13
2023-03-04T00:51:31.174Z,108.85
2023-03-04T00:54:00.710Z,117.90
2023-03-04T00:56:28.028Z,117.72
2023-03-04T00:58:55.211Z,113.00
2023-03-04T01:01:22.252Z,106.45
2023-03-04T01:03:49.145Z,118.40
2023-03-04T01:06:16.627Z,113.40
2023-03-04T01:08:44.914Z,126.10
2023-03-04T01:11:12.094Z,128.35
2023-03-04T01:13:39.750Z,111.75
2023-03-04T01:16:07.523Z,117.63
2023-03-04T01:18:34.437Z,125.65
2023-03-04T01:21:03.018Z,116.30
2023-03-04T01:23:29.996Z,107.32
2023-03-04T01:25:56.939Z,118.97
2023-03-04T01:28:25.308Z,116.43
2023-03-04T01:30:52.382Z,110.18
2023-03-04T01:33:19.317Z,116.20
2023-03-04T01:35:46.281Z,106.70
2023-03-04T01:38:13.267Z,104.15
2023-03-04T01:40:40.702Z,93.53
2023-03-04T01:43:08.013Z,98.50
2023-03-04T01:45:35.773Z,95.07
2023-03-04T01:48:02.917Z,93.43
2023-03-04T01:50:35.569Z,93.68
2023-03-04T01:53:04.040Z,94.10
2023-03-04T01:55:31.237Z,102.45
2023-03-04T01:57:58.294Z,92.20
2023-03-04T02:00:34.045Z,100.05
2023-03-04T02:03:11.459Z,108.45
2023-03-04T02:05:42.162Z,100.70
2023-03-04T02:08:10.558Z,99.57
2023-03-04T02:10:38.303Z,110.45
2023-03-04T02:13:06.187Z,107.35
2023-03-04T02:15:33.628Z,113.38
2023-03-04T02:18:01.328Z,104.90
2023-03-04T02:20:35.132Z,99.05
2023-03-04T02:23:27.957Z,107.43
2023-03-04T02:26:13.331Z,118.35
2023-03-04T02:28:40.897Z,115.63
2023-03-04T02:31:30.272Z,109.35
2023-03-04T02:34:00.723Z,118.72
2023-03-04T02:36:28.975Z,116.28
2023-03-04T02:39:00.692Z,107.13
2023-03-04T02:41:30.493Z,109.57
2023-03-04T02:43:58.778Z,104.20
2023-03-04T02:46:27.380Z,109.20
2023-03-04T02:48:54.380Z,128.27
2023-03-04T02:51:21.923Z,115.07
2023-03-04T02:53:48.683Z,109.13
2023-03-04T02:56:15.837Z,120.97
2023-03-04T02:58:42.734Z,114.75
2023-03-04T03:01:11.401Z,114.63
2023-03-04T03:03:38.295Z,124.38
2023-03-04T03:06:05.448Z,123.32
2023-03-04T03:08:32.254Z,114.15
2023-03-04T03:11:01.188Z,121.85
2023-03-04T03:13:30.208Z,108.05
2023-03-04T03:15:57.324Z,113.30
2023-03-04T03:18:24.935Z,108.60
2023-03-04T03:20:52.182Z,99.90
2023-03-04T03:23:20.938Z,111.50
2023-03-04T03:25:47.913Z,110.43
2023-03-04T03:28:14.878Z,118.65
2023-03-04T03:30:42.151Z,115.43
2023-03-04T03:33:08.931Z,117.95
2023-03-04T03:35:36.795Z,124.93
2023-03-04T03:38:03.831Z,120.10
2023-03-04T03:40:30.584Z,112.22
2023-03-04T03:42:57.449Z,122.20
2023-03-04T03:45:24.241Z,116.45
2023-03-04T03:47:51.033Z,125.15
2023-03-04T03:50:18.010Z,127.90
2023-03-04T03:52:44.936Z,125.25
2023-03-04T03:55:11.971Z,119.18
2023-03-04T03:57:38.846Z,114.72
2023-03-04T04:00:07.761Z,132.80
2023-03-04T04:02:40.334Z,127.45
2023-03-04T04:05:09.078Z,125.90
2023-03-04T04:07:37.258Z,153.75
2023-03-04T04:10:05.611Z,124.82
2023-03-04T04:12:32.580Z,136.40
2023-03-04T04:14:59.655Z,131.85
2023-03-04T04:17:26.593Z,125.28
2023-03-04T04:19:53.536Z,119.88
2023-03-04T04:22:21.522Z,115.10
2023-03-04T04:24:49.232Z,109.50
2023-03-04T04:27:16.327Z,118.25
2023-03-04T04:29:43.094Z,142.02
2023-03-04T04:32:13.217Z,116.75
2023-03-04T04:34:40.177Z,134.63
2023-03-04T04:37:07.191Z,111.78
2023-03-04T04:39:34.684Z,141.45
2023-03-04T04:42:01.684Z,134.32
2023-03-04T04:44:28.580Z,140.23
2023-03-04T04:46:55.340Z,126.80
2023-03-04T04:49:22.195Z,125.60
2023-03-04T04:51:51.227Z,126.03
2023-03-04T04:54:18.050Z,118.68
2023-03-04T04:56:44.949Z,120.97
2023-03-04T04:59:11.812Z,116.28
2023-03-04T05:01:38.800Z,124.50
2023-03-04T05:04:05.677Z,117.30
2023-03-04T05:06:32.812Z,120.93
2023-03-04T05:08:59.670Z,140.32
2023-03-04T05:11:26.919Z,144.20
2023-03-04T05:13:53.947Z,143.35
2023-03-04T05:16:20.875Z,149.02
2023-03-04T05:18:47.719Z,159.45
2023-03-04T05:21:14.758Z,148.38
2023-03-04T05:23:43.408Z,147.82
2023-03-04T05:26:13.451Z,141.02
2023-03-04T05:28:40.333Z,163.77
2023-03-04T05:31:07.412Z,152.15
2023-03-04T05:33:35.026Z,149.80
2023-03-04T05:36:02.783Z,161.82
2023-03-04T05:38:29.788Z,164.32
2023-03-04T05:40:59.302Z,177.90
2023-03-04T05:43:27.839Z,143.00
2023-03-04T05:45:55.598Z,154.75
2023-03-04T05:48:23.048Z,149.57
2023-03-04T05:50:57.628Z,168.57
2023-03-04T05:53:25.135Z,140.05
2023-03-04T05:55:52.341Z,144.90
2023-03-04T05:58:19.932Z,158.95
2023-03-04T06:00:47.278Z,149.38
2023-03-04T06:03:19.821Z,140.95
2023-03-04T06:05:47.091Z,148.57
2023-03-04T06:08:14.600Z,162.57
2023-03-04T06:10:42.180Z,158.27
2023-03-04T06:13:10.115Z,156.05
2023-03-04T06:15:38.333Z,157.27
2023-03-04T06:18:05.934Z,134.85
2023-03-04T06:20:33.827Z,152.70
2023-03-04T06:23:00.703Z,160.48
2023-03-04T06:25:27.691Z,175.65
2023-03-04T06:27:55.294Z,153.05
2023-03-04T06:30:22.830Z,146.85
2023-03-04T06:32:49.844Z,138.18
2023-03-04T06:35:17.409Z,114.88
2023-03-04T06:37:44.485Z,121.80
2023-03-04T06:40:11.982Z,109.57
2023-03-04T06:42:40.404Z,107.18
2023-03-04T06:45:08.277Z,105.07
2023-03-04T06:47:35.331Z,104.90
2023-03-04T06:50:03.688Z,97.07
2023-03-04T06:52:30.464Z,106.78
2023-03-04T06:54:57.436Z,99.40
2023-03-04T06:57:24.332Z,93.43
2023-03-04T06:59:51.485Z,69.38
2023-03-04T07:02:18.475Z,61.35
2023-03-04T07:04:45.330Z,61.15
2023-03-04T07:07:12.340Z,59.70
2023-03-04T07:09:39.344Z,55.67
2023-03-04T07:12:06.334Z,62.30
2023-03-04T07:14:33.394Z,61.42
2023-03-04T07:17:00.372Z,57.60
2023-03-04T07:19:27.395Z,52.08
2023-03-04T07:21:54.512Z,52.78
2023-03-04T07:24:21.638Z,50.80
2023-03-04T07:26:48.447Z,50.13
2023-03-04T07:29:15.361Z,54.45
2023-03-04T07:31:42.579Z,55.38
2023-03-04T07:34:13.103Z,58.28
2023-03-04T07:36:40.603Z,48.33
2023-03-04T07:39:08.376Z,50.35
2023-03-04T07:41:38.015Z,50.90
2023-03-04T07:44:07.062Z,47.03
2023-03-04T07:46:34.382Z,46.92
2023-03-04T07:49:01.151Z,47.83
2023-03-04T07:51:28.344Z,48.10
2023-03-04T07:53:58.918Z,43.80
2023-03-04T07:56:28.592Z,45.60
2023-03-04T07:58:56.438Z,46.78
2023-03-04T08:01:26.331Z,42.75
2023-03-04T08:03:53.661Z,41.05
2023-03-04T08:06:22.011Z,42.72
2023-03-04T08:08:49.553Z,41.20
2023-03-04T08:11:20.774Z,45.25
2023-03-04T08:13:48.399Z,44.65
2023-03-04T08:16:19.794Z,41.42
2023-03-04T08:18:49.684Z,41.08
2023-03-04T08:21:21.510Z,46.47
2023-03-04T08:23:49.325Z,47.67
2023-03-04T08:26:21.497Z,41.55
2023-03-04T08:28:48.867Z,43.65
2023-03-04T08:31:18.396Z,45.40
2023-03-04T08:33:46.687Z,40.40
2023-03-04T08:36:14.914Z,43.95
2023-03-04T08:38:42.263Z,43.60
2023-03-04T08:41:09.356Z,42.45
2023-03-04T08:43:36.339Z,47.40
2023-03-04T08:46:04.593Z,48.42
2023-03-04T08:48:31.541Z,48.17
2023-03-04T08:50:58.836Z,49.17
2023-03-04T08:53:25.920Z,45.38
2023-03-04T08:55:53.446Z,50.47
2023-03-04T08:58:21.065Z,51.55
2023-03-04T09:00:49.446Z,44.38
2023-03-04T09:03:16.889Z,49.47
2023-03-04T09:05:45.375Z,49.80
2023-03-04T09:08:13.182Z,48.22
2023-03-04T09:10:52.414Z,50.53
2023-03-04T09:13:19.380Z,49.50
2023-03-04T09:15:47.794Z,52.13
2023-03-04T09:18:16.287Z,48.67
2023-03-04T09:20:43.082Z,52.97
2023-03-04T09:23:10.508Z,50.17
2023-03-04T09:25:38.841Z,47.38
2023-03-04T09:28:07.085Z,48.05
2023-03-04T09:30:35.132Z,50.75
2023-03-04T09:33:02.622Z,49.08
2023-03-04T09:35:30.078Z,55.78
2023-03-04T09:37:57.999Z,49.63
2023-03-04T09:40:51.341Z,48.05
2023-03-04T09:43:29.611Z,49.08
2023-03-04T09:46:05.500Z,44.13
2023-03-04T09:48:40.679Z,45.85
2023-03-04T09:51:52.761Z,41.92
2023-03-04T09:54:25.327Z,43.97
2023-03-04T09:56:59.008Z,41.05
2023-03-04T09:59:32.237Z,42.50
2023-03-04T10:02:03.357Z,41.83
2023-03-04T10:04:48.777Z,43.20
2023-03-04T10:07:41.500Z,43.80
2023-03-04T10:10:16.827Z,44.17
2023-03-04T10:12:48.180Z,38.15
2023-03-04T10:15:36.908Z,42.63
2023-03-04T10:18:27.724Z,37.90
2023-03-04T10:20:58.330Z,40.28
2023-03-04T10:23:28.737Z,44.45
2023-03-04T10:25:56.699Z,39.90
2023-03-04T10:28:29.261Z,40.55
2023-03-04T10:31:08.214Z,44.30
2023-03-04T10:33:38.306Z,42.25
2023-03-04T10:36:26.901Z,41.95
2023-03-04T10:38:57.316Z,36.95
2023-03-04T10:41:27.922Z,37.72
2023-03-04T10:44:20.904Z,42.75
2023-03-04T10:46:49.365Z,39.17
2023-03-04T10:49:19.453Z,38.33
2023-03-04T10:52:04.132Z,37.97
2023-03-04T10:54:33.789Z,38.40
2023-03-04T10:57:06.523Z,38.42
2023-03-04T10:59:44.301Z,37.45
2023-03-04T11:02:26.917Z,37.58
2023-03-04T11:04:57.132Z,36.38
2023-03-04T11:07:26.540Z,36.72
2023-03-04T11:09:53.583Z,36.00
2023-03-04T11:12:31.391Z,35.17
2023-03-04T11:14:58.838Z,33.42
2023-03-04T11:17:47.790Z,33.78
2023-03-04T11:20:30.103Z,36.72
2023-03-04T11:23:04.584Z,31.48
2023-03-04T11:25:40.360Z,36.25
2023-03-04T11:28:13.987Z,29.40
2023-03-04T11:30:50.466Z,32.78
2023-03-04T11:33:23.279Z,34.92
2023-03-04T11:36:30.321Z,31.98
2023-03-04T11:38:58.362Z,35.13
2023-03-04T11:41:43.040Z,32.25
2023-03-04T11:44:13.032Z,29.45
2023-03-04T11:46:58.707Z,29.08
2023-03-04T11:49:38.086Z,32.55
2023-03-04T11:52:36.925Z,29.08
2023-03-04T11:55:43.908Z,30.13
2023-03-04T11:58:36.900Z,33.50
2023-03-04T12:01:28.334Z,32.28
2023-03-04T12:04:17.813Z,30.80
2023-03-04T12:07:01.204Z,31.08
2023-03-04T12:09:41.583Z,30.27
2023-03-04T12:12:29.476Z,30.98
2023-03-04T12:15:24.100Z,28.45
2023-03-04T12:18:16.040Z,31.52
2023-03-04T12:21:11.809Z,33.22
2023-03-04T12:23:49.535Z,30.20
2023-03-04T12:26:40.178Z,33.67
2023-03-04T12:29:21.217Z,31.63
2023-03-04T12:31:54.262Z,32.00
2023-03-04T12:34:36.264Z,29.75
2023-03-04T12:37:17.039Z,29.00
2023-03-04T12:40:21.830Z,28.85
2023-03-04T12:43:07.936Z,30.95
2023-03-04T12:45:55.071Z,31.25
2023-03-04T12:48:33.496Z,30.27
2023-03-04T12:51:15.360Z,24.55
2023-03-04T12:53:53.777Z,26.67
2023-03-04T12:56:37.447Z,29.42
2023-03-04T12:59:06.980Z,32.17
2023-03-04T13:01:46.321Z,27.40
2023-03-04T13:04:34.750Z,31.48
2023-03-04T13:07:21.762Z,30.58
2023-03-04T13:09:55.068Z,28.17
2023-03-04T13:12:24.170Z,27.55
2023-03-04T13:15:08.951Z,29.05
2023-03-04T13:17:51.726Z,29.42
2023-03-04T13:20:32.276Z,27.17
2023-03-04T13:23:01.035Z,27.98
2023-03-04T13:25:45.294Z,32.08
2023-03-04T13:28:32.088Z,29.40
2023-03-04T13:30:59.500Z,26.17
2023-03-04T13:33:26.809Z,28.60
2023-03-04T13:36:04.144Z,27.95
2023-03-04T13:38:31.083Z,29.23
2023-03-04T13:41:19.302Z,31.17
2023-03-04T13:43:52.873Z,29.17
2023-03-04T13:46:19.662Z,30.27
2023-03-04T13:48:50.504Z,31.73
2023-03-04T13:51:45.208Z,32.47
2023-03-04T13:54:27.559Z,31.55
2023-03-04T13:57:00.521Z,31.58
2023-03-04T13:59:30.221Z,28.45
2023-03-04T14:02:15.824Z,32.08
2023-03-04T14:05:02.122Z,30.85
2023-03-04T14:07:35.141Z,31.00
2023-03-04T14:10:05.231Z,29.13
2023-03-04T14:13:05.918Z,29.42
2023-03-04T14:15:35.260Z,29.73
2023-03-04T14:18:04.245Z,29.30
2023-03-04T14:20:39.154Z,26.63
2023-03-04T14:23:26.496Z,31.80
2023-03-04T14:26:06.098Z,30.40
2023-03-04T14:28:33.065Z,30.25
2023-03-04T14:31:00.028Z,31.20
2023-03-04T14:33:29.498Z,26.45
2023-03-04T14:36:01.960Z,27.77
2023-03-04T14:38:31.465Z,31.27
2023-03-04T14:41:05.630Z,26.75
2023-03-04T14:43:45.294Z,26.58
2023-03-04T14:46:15.574Z,27.45
2023-03-04T14:48:49.162Z,26.92
2023-03-04T14:51:38.553Z,28.45
2023-03-04T14:54:05.884Z,28.25
2023-03-04T14:56:36.015Z,28.73
2023-03-04T14:59:03.160Z,32.40
2023-03-04T15:01:35.644Z,29.70
2023-03-04T15:04:07.924Z,30.02
2023-03-04T15:06:38.781Z,33.13
2023-03-04T15:09:20.765Z,33.28
2023-03-04T15:11:55.011Z,29.45
2023-03-04T15:15:01.433Z,29.52
2023-03-04T15:17:39.457Z,30.10
2023-03-04T15:20:06.191Z,33.13
2023-03-04T15:22:35.038Z,29.42
2023-03-04T15:25:02.071Z,33.90
2023-03-04T15:27:30.466Z,30.85
2023-03-04T15:29:59.723Z,29.52
2023-03-04T15:32:28.410Z,30.98
2023-03-04T15:34:55.965Z,30.63
2023-03-04T15:37:26.681Z,35.70
2023-03-04T15:39:56.300Z,43.92
2023-03-04T15:42:23.623Z,29.20
2023-03-04T15:44:50.406Z,31.27
2023-03-04T15:47:17.292Z,31.27
2023-03-04T15:49:47.446Z,35.80
2023-03-04T15:52:22.445Z,36.08
2023-03-04T15:54:49.708Z,33.15
2023-03-04T15:57:34.729Z,34.35
2023-03-04T16:00:01.586Z,36.25
2023-03-04T16:02:38.395Z,38.83
2023-03-04T16:05:07.209Z,41.40
2023-03-04T16:07:35.881Z,41.33
2023-03-04T16:10:10.692Z,36.00
2023-03-04T16:12:37.742Z,36.58
2023-03-04T16:15:14.205Z,38.38
2023-03-04T16:17:43.982Z,42.72
2023-03-04T16:20:13.761Z,32.85
2023-03-04T16:22:42.500Z,36.97
2023-03-04T16:25:14.279Z,37.08
2023-03-04T16:27:41.671Z,39.92
2023-03-04T16:30:15.294Z,38.20
2023-03-04T16:32:42.273Z,40.38
2023-03-04T16:35:10.163Z,41.40
2023-03-04T16:37:37.749Z,38.55
2023-03-04T16:40:05.993Z,40.55
2023-03-04T16:42:33.035Z,41.25
2023-03-04T16:45:00.018Z,41.42
2023-03-04T16:47:28.051Z,42.65
2023-03-04T16:49:55.166Z,46.05
2023-03-04T16:52:26.740Z,42.35
2023-03-04T16:54:53.758Z,45.88
2023-03-04T16:57:20.808Z,46.08
2023-03-04T16:59:47.760Z,47.03
2023-03-04T17:02:21.584Z,46.35
2023-03-04T17:04:50.491Z,49.45
2023-03-04T17:07:17.541Z,54.50
2023-03-04T17:09:44.434Z,50.13
2023-03-04T17:12:12.432Z,54.60
2023-03-04T17:14:40.027Z,57.20
2023-03-04T17:17:07.351Z,48.53
2023-03-04T17:19:34.140Z,54.13
2023-03-04T17:22:02.264Z,54.92
2023-03-04T17:24:29.221Z,60.33
2023-03-04T17:26:56.354Z,55.40
2023-03-04T17:29:23.226Z,55.63
2023-03-04T17:31:50.049Z,55.83
2023-03-04T17:34:18.326Z,58.83
2023-03-04T17:36:45.808Z,50.22
2023-03-04T17:39:13.328Z,56.22
2023-03-04T17:41:40.333Z,55.17
2023-03-04T17:44:07.126Z,57.38
2023-03-04T17:46:34.274Z,62.33
2023-03-04T17:49:01.531Z,59.28
2023-03-04T17:51:37.049Z,57.42
2023-03-04T17:54:05.753Z,55.83
2023-03-04T17:56:33.346Z,55.53
2023-03-04T17:59:02.443Z,63.95
2023-03-04T18:01:29.830Z,61.22
2023-03-04T18:03:56.763Z,57.55
2023-03-04T18:06:25.136Z,55.00
2023-03-04T18:08:52.798Z,62.92
2023-03-04T18:11:24.812Z,59.90
2023-03-04T18:13:52.496Z,60.58
2023-03-04T18:16:24.042Z,65.82
2023-03-04T18:18:51.175Z,58.65
2023-03-04T18:21:19.633Z,60.42
2023-03-04T18:23:46.581Z,66.50
2023-03-04T18:26:14.163Z,61.22
2023-03-04T18:28:41.015Z,68.82
2023-03-04T18:31:07.768Z,63.80
2023-03-04T18:33:35.062Z,60.33
2023-03-04T18:36:05.257Z,61.33
2023-03-04T18:38:32.648Z,67.97
2023-03-04T18:41:01.102Z,60.42
2023-03-04T18:43:28.258Z,62.63
2023-03-04T18:46:37.203Z,66.90
2023-03-04T18:49:08.639Z,65.50
2023-03-04T18:51:35.471Z,65.45
2023-03-04T18:54:02.340Z,66.22
2023-03-04T18:56:38.057Z,57.88
2023-03-04T18:59:10.954Z,64.45
2023-03-04T19:01:37.875Z,66.88
2023-03-04T19:04:05.731Z,59.95
2023-03-04T19:06:34.711Z,76.35
2023-03-04T19:09:01.939Z,64.03
2023-03-04T19:11:29.923Z,59.95
2023-03-04T19:13:56.955Z,72.13
2023-03-04T19:16:24.549Z,78.38
2023-03-04T19:18:51.453Z,62.85
2023-03-04T19:21:18.285Z,66.85
2023-03-04T19:23:45.253Z,61.75
2023-03-04T19:26:13.865Z,53.08
2023-03-04T19:28:41.030Z,58.58
2023-03-04T19:31:09.182Z,64.28
2023-03-04T19:33:36.643Z,54.92
2023-03-04T19:36:06.379Z,60.05
2023-03-04T19:38:33.998Z,55.55
2023-03-04T19:41:09.024Z,52.97
2023-03-04T19:43:37.055Z,56.72
2023-03-04T19:46:04.462Z,57.95
2023-03-04T19:48:31.786Z,59.17
2023-03-04T19:50:59.835Z,58.25
2023-03-04T19:53:26.958Z,52.25
2023-03-04T19:55:54.014Z,51.85
2023-03-04T19:58:22.062Z,52.55
2023-03-04T20:00:50.235Z,53.42
2023-03-04T20:03:17.252Z,51.22
2023-03-04T20:05:46.398Z,57.38
2023-03-04T20:08:13.650Z,54.95
2023-03-04T20:10:41.065Z,52.08
2023-03-04T20:13:08.989Z,58.72
2023-03-04T20:15:36.083Z,48.65
2023-03-04T20:18:03.509Z,52.90
2023-03-04T20:20:30.240Z,55.38
2023-03-04T20:22:57.371Z,50.67
2023-03-04T20:25:25.157Z,54.85
2023-03-04T20:27:52.345Z,50.53
2023-03-04T20:30:19.209Z,52.83
2023-03-04T20:32:46.183Z,45.72
2023-03-04T20:35:15.194Z,59.10
2023-03-04T20:37:42.893Z,65.85
2023-03-04T20:40:11.112Z,55.05
2023-03-04T20:42:38.152Z,52.53
2023-03-04T20:45:06.027Z,55.97
2023-03-04T20:47:32.901Z,51.85
2023-03-04T20:49:59.775Z,51.58
2023-03-04T20:52:26.773Z,53.72
2023-03-04T20:54:53.692Z,53.67
2023-03-04T20:57:20.714Z,52.85
2023-03-04T20:59:47.591Z,54.45
2023-03-04T21:02:17.169Z,55.42
2023-03-04T21:04:44.198Z,53.13
2023-03-04T21:07:12.320Z,63.72
2023-03-04T21:09:39.269Z,60.08
2023-03-04T21:12:06.404Z,59.97
2023-03-04T21:14:33.680Z,61.22
2023-03-04T21:17:03.934Z,55.75
2023-03-04T21:19:34.591Z,62.88
2023-03-04T21:22:01.756Z,55.63
2023-03-04T21:24:31.302Z,67.13
2023-03-04T21:27:01.504Z,67.25
2023-03-04T21:29:29.002Z,64.32
2023-03-04T21:32:20.843Z,70.50
2023-03-04T21:34:52.062Z,65.43
2023-03-04T21:37:20.640Z,65.38
2023-03-04T21:39:47.435Z,63.08
2023-03-04T21:42:14.403Z,63.45
2023-03-04T21:44:51.808Z,66.57
2023-03-04T21:47:20.962Z,66.60
2023-03-04T21:49:48.213Z,61.88
2023-03-04T21:52:15.902Z,70.78
2023-03-04T21:54:42.988Z,63.13
2023-03-04T21:57:10.143Z,66.43
2023-03-04T21:59:38.660Z,64.72
2023-03-04T22:02:06.693Z,66.75
2023-03-04T22:04:33.812Z,63.13
2023-03-04T22:07:02.002Z,61.60
2023-03-04T22:09:29.115Z,60.67
2023-03-04T22:11:56.449Z,61.17
2023-03-04T22:14:23.338Z,60.00
2023-03-04T22:16:55.620Z,62.63
2023-03-04T22:19:30.609Z,65.88
2023-03-04T22:21:59.097Z,69.85
2023-03-04T22:24:26.374Z,68.82
2023-03-04T22:26:53.509Z,65.22
2023-03-04T22:29:20.356Z,66.13
2023-03-04T22:31:47.808Z,68.57
2023-03-04T22:34:16.272Z,66.53
2023-03-04T22:36:45.390Z,68.00
2023-03-04T22:39:14.725Z,68.82
2023-03-04T22:41:42.036Z,64.15
2023-03-04T22:44:09.509Z,67.43
2023-03-04T22:46:38.684Z,75.47
2023-03-04T22:49:11.985Z,69.07
2023-03-04T22:51:44.055Z,72.25
2023-03-04T22:54:16.221Z,68.32
2023-03-04T22:56:43.747Z,75.45
2023-03-04T22:59:10.903Z,72.43
2023-03-04T23:01:37.789Z,80.80
2023-03-04T23:04:04.778Z,73.78
2023-03-04T23:06:31.848Z,73.20
2023-03-04T23:08:59.740Z,75.63
2023-03-04T23:11:29.541Z,70.80
2023-03-04T23:14:02.193Z,75.63
2023-03-04T23:16:29.343Z,68.00
2023-03-04T23:18:59.191Z,64.25
2023-03-04T23:21:28.345Z,64.50
2023-03-04T23:23:56.089Z,63.83
2023-03-04T23:26:29.152Z,64.13
2023-03-04T23:28:57.204Z,63.70
2023-03-04T23:31:25.621Z,59.30
2023-03-04T23:33:57.496Z,64.75
2023-03-04T23:36:33.006Z,64.95
2023-03-04T23:39:00.445Z,65.40
2023-03-04T23:41:29.698Z,68.10
2023-03-04T23:43:58.524Z,68.47
2023-03-04T23:46:26.923Z,63.00
2023-03-04T23:48:54.781Z,63.47
2023-03-04T23:51:24.773Z,65.13
2023-03-04T23:53:51.871Z,66.47
2023-03-04T23:56:21.999Z,60.70
2023-03-04T23:58:49.136Z,74.25
